createdAt,value
2018-02-17T00:01:28.030Z,0.20
2018-02-17T00:03:55.547Z,0.10
2018-02-17T00:06:23.050Z,0.20
2018-02-17T00:08:50.636Z,0.00
2018-02-17T00:11:18.903Z,-0.10
2018-02-17T00:13:47.180Z,0.00
2018-02-17T00:16:15.459Z,0.10
2018-02-17T00:18:43.748Z,0.10
2018-02-17T00:21:12.053Z,0.20
2018-02-17T00:23:39.566Z,0.20
2018-02-17T00:26:07.126Z,0.10
2018-02-17T00:28:34.648Z,0.00
2018-02-17T00:31:02.186Z,-0.20
2018-02-17T00:33:29.713Z,-0.10
2018-02-17T00:35:57.218Z,-0.20
2018-02-17T00:38:24.752Z,-0.20
2018-02-17T00:40:53.017Z,-0.20
2018-02-17T00:43:21.376Z,-0.60
2018-02-17T00:45:48.886Z,-0.60
2018-02-17T00:48:16.405Z,-0.50
2018-02-17T00:50:43.940Z,-0.30
2018-02-17T00:53:11.456Z,-0.10
2018-02-17T00:55:38.992Z,-0.10
2018-02-17T00:58:07.272Z,0.10
2018-02-17T01:00:35.565Z,-0.20
2018-02-17T01:03:03.843Z,-0.30
2018-02-17T01:05:32.106Z,-0.20
2018-02-17T01:08:00.428Z,0.00
2018-02-17T01:10:27.942Z,0.00
2018-02-17T01:12:56.226Z,0.00
2018-02-17T01:15:24.503Z,0.10
2018-02-17T01:17:52.808Z,-0.10
2018-02-17T01:20:20.325Z,-0.10
2018-02-17T01:22:47.825Z,0.10
2018-02-17T01:25:15.337Z,0.10
2018-02-17T01:27:42.847Z,0.20
2018-02-17T01:30:10.363Z,0.20
2018-02-17T01:32:37.868Z,0.30
2018-02-17T01:35:05.411Z,0.30
2018-02-17T01:37:32.932Z,0.20
2018-02-17T01:40:00.468Z,0.20
2018-02-17T01:42:28.017Z,0.20
2018-02-17T01:44:55.534Z,0.20
2018-02-17T01:47:24.844Z,0.10
2018-02-17T01:49:52.364Z,0.00
2018-02-17T01:52:19.894Z,-0.10
2018-02-17T01:54:47.404Z,-0.40
2018-02-17T01:57:15.701Z,-0.20
2018-02-17T01:59:43.411Z,-0.20
2018-02-17T02:02:10.923Z,-0.10
2018-02-17T02:04:38.450Z,0.00
2018-02-17T02:07:05.949Z,0.00
2018-02-17T02:09:33.710Z,-0.10
2018-02-17T02:12:01.228Z,0.00
2018-02-17T02:14:28.744Z,-0.10
2018-02-17T02:16:56.273Z,0.00
2018-02-17T02:19:24.542Z,-0.20
2018-02-17T02:21:52.841Z,-0.20
2018-02-17T02:24:20.362Z,-0.20
2018-02-17T02:26:47.912Z,-0.10
2018-02-17T02:29:15.423Z,0.00
2018-02-17T02:31:42.935Z,0.00
2018-02-17T02:34:10.476Z,0.00
2018-02-17T02:36:37.981Z,-0.20
2018-02-17T02:41:36.318Z,-0.30
2018-02-17T02:44:03.851Z,-0.30
2018-02-17T02:46:31.374Z,-0.60
2018-02-17T02:48:59.643Z,-0.70
2018-02-17T02:51:27.176Z,-0.70
2018-02-17T02:53:54.695Z,-0.80
2018-02-17T02:56:22.236Z,-0.90
2018-02-17T02:58:50.498Z,-0.40
2018-02-17T03:01:18.025Z,-0.40
2018-02-17T03:03:45.532Z,-0.10
2018-02-17T03:06:13.813Z,-0.30
2018-02-17T03:08:42.105Z,-0.40
2018-02-17T03:11:09.624Z,-0.40
2018-02-17T03:13:37.164Z,-0.40
2018-02-17T03:16:05.430Z,-0.40
2018-02-17T03:18:32.956Z,-0.40
2018-02-17T03:21:00.463Z,-0.10
2018-02-17T03:23:27.982Z,-0.10
2018-02-17T03:25:55.565Z,-0.20
2018-02-17T03:28:23.072Z,-0.40
2018-02-17T03:30:51.380Z,-0.40
2018-02-17T03:33:18.907Z,-0.40
2018-02-17T03:35:47.212Z,-0.30
2018-02-17T03:38:14.710Z,-0.30
2018-02-17T03:40:42.236Z,-0.20
2018-02-17T03:43:09.763Z,-0.50
2018-02-17T03:45:38.040Z,-0.60
2018-02-17T03:48:06.327Z,-0.30
2018-02-17T03:50:33.834Z,-0.30
2018-02-17T03:53:01.366Z,-0.20
2018-02-17T03:55:28.859Z,0.00
2018-02-17T03:57:56.361Z,-0.20
2018-02-17T04:00:23.904Z,-0.40
2018-02-17T04:02:52.185Z,-0.20
2018-02-17T04:05:19.739Z,-0.30
2018-02-17T04:07:47.266Z,-0.30
2018-02-17T04:10:14.800Z,-0.10
2018-02-17T04:12:43.084Z,-0.20
2018-02-17T04:15:10.590Z,-0.20
2018-02-17T04:17:38.883Z,-0.40
2018-02-17T04:20:06.440Z,-0.40
2018-02-17T04:22:33.996Z,-0.30
2018-02-17T04:25:01.544Z,-0.10
2018-02-17T04:27:29.828Z,-0.40
2018-02-17T04:29:57.351Z,-0.40
2018-02-17T04:32:24.881Z,-0.40
2018-02-17T04:34:52.412Z,-0.20
2018-02-17T04:37:19.923Z,-0.40
2018-02-17T04:42:56.343Z,-0.20
2018-02-17T04:45:23.880Z,-0.10
2018-02-17T04:48:10.894Z,-0.10
2018-02-17T04:50:45.028Z,-0.20
2018-02-17T04:53:15.187Z,-0.20
2018-02-17T04:56:03.260Z,0.00
2018-02-17T04:58:35.279Z,0.00
2018-02-17T05:01:03.288Z,0.00
2018-02-17T05:03:32.407Z,0.10
2018-02-17T05:06:04.313Z,-0.10
2018-02-17T05:08:36.858Z,-0.10
2018-02-17T05:11:04.390Z,-0.10
2018-02-17T05:13:32.661Z,0.20
2018-02-17T05:16:06.629Z,0.30
2018-02-17T05:18:38.065Z,0.20
2018-02-17T05:21:05.567Z,0.20
2018-02-17T05:23:34.896Z,0.10
2018-02-17T05:26:03.164Z,0.20
2018-02-17T05:28:31.441Z,0.30
2018-02-17T05:31:00.486Z,0.30
2018-02-17T05:36:34.342Z,0.30
2018-02-17T05:39:04.455Z,0.30
2018-02-17T05:41:35.956Z,0.30
2018-02-17T05:44:03.479Z,0.00
2018-02-17T05:46:34.227Z,0.40
2018-02-17T05:49:03.145Z,0.30
2018-02-17T05:51:30.652Z,0.30
2018-02-17T05:53:58.148Z,0.40
2018-02-17T05:56:25.675Z,0.40
2018-02-17T05:58:53.171Z,0.50
2018-02-17T06:01:20.714Z,0.30
2018-02-17T06:03:48.236Z,0.20
2018-02-17T06:06:15.774Z,0.20
2018-02-17T06:08:43.283Z,0.10
2018-02-17T06:11:11.542Z,0.40
2018-02-17T06:13:39.824Z,0.30
2018-02-17T06:16:08.092Z,0.20
2018-02-17T06:18:36.387Z,0.10
2018-02-17T06:21:03.890Z,0.10
2018-02-17T06:23:31.430Z,0.10
2018-02-17T06:25:58.928Z,0.10
2018-02-17T06:28:26.426Z,0.10
2018-02-17T06:30:53.947Z,0.00
2018-02-17T06:33:21.514Z,-0.20
2018-02-17T06:35:49.819Z,-0.20
2018-02-17T06:38:17.340Z,-0.20
2018-02-17T06:40:44.888Z,-0.10
2018-02-17T06:43:12.413Z,-0.10
2018-02-17T06:45:39.917Z,0.00
2018-02-17T06:48:07.455Z,-0.10
2018-02-17T06:50:34.960Z,-0.10
2018-02-17T06:53:02.486Z,-0.20
2018-02-17T06:55:30.004Z,0.00
2018-02-17T06:57:57.525Z,0.10
2018-02-17T07:00:25.800Z,0.20
2018-02-17T07:02:54.078Z,0.20
2018-02-17T07:05:22.361Z,-0.20
2018-02-17T07:07:50.634Z,0.00
2018-02-17T07:10:18.944Z,0.20
2018-02-17T07:12:46.461Z,0.10
2018-02-17T07:15:14.758Z,0.40
2018-02-17T07:17:42.281Z,0.40
2018-02-17T07:20:09.777Z,0.50
2018-02-17T07:22:37.309Z,0.60
2018-02-17T07:25:05.609Z,0.70
2018-02-17T07:27:33.154Z,0.70
2018-02-17T07:30:01.441Z,0.70
2018-02-17T07:32:28.986Z,0.70
2018-02-17T07:34:57.272Z,0.70
2018-02-17T07:37:25.549Z,0.70
2018-02-17T07:39:53.081Z,0.70
2018-02-17T07:42:20.578Z,0.80
2018-02-17T07:44:48.108Z,0.90
2018-02-17T07:47:16.384Z,1.00
2018-02-17T07:49:45.392Z,1.00
2018-02-17T07:52:13.660Z,1.00
2018-02-17T07:54:41.944Z,1.00
2018-02-17T07:57:09.467Z,0.90
2018-02-17T07:59:36.986Z,0.80
2018-02-17T08:02:04.508Z,1.00
2018-02-17T08:04:32.791Z,1.10
2018-02-17T08:07:01.670Z,1.00
2018-02-17T08:09:29.981Z,1.10
2018-02-17T08:11:57.488Z,1.10
2018-02-17T08:14:25.049Z,1.20
2018-02-17T08:16:53.313Z,1.20
2018-02-17T08:19:20.833Z,1.20
2018-02-17T08:21:48.358Z,1.30
2018-02-17T08:24:16.655Z,1.40
2018-02-17T08:26:44.163Z,1.40
2018-02-17T08:29:11.670Z,1.50
2018-02-17T08:31:39.209Z,1.40
2018-02-17T08:34:07.474Z,1.30
2018-02-17T08:36:34.985Z,1.30
2018-02-17T08:39:02.500Z,1.40
2018-02-17T08:41:30.808Z,1.40
2018-02-17T08:43:58.307Z,1.40
2018-02-17T08:46:25.874Z,1.50
2018-02-17T08:48:53.368Z,1.60
2018-02-17T08:51:21.646Z,1.70
2018-02-17T08:53:49.157Z,1.70
2018-02-17T08:56:16.657Z,1.80
2018-02-17T08:58:44.216Z,1.60
2018-02-17T09:01:12.487Z,1.60
2018-02-17T09:03:40.768Z,1.60
2018-02-17T09:06:09.067Z,1.70
2018-02-17T09:08:36.581Z,1.70
2018-02-17T09:11:04.129Z,1.70
2018-02-17T09:13:31.634Z,1.80
2018-02-17T09:15:59.160Z,1.80
2018-02-17T09:18:26.677Z,1.90
2018-02-17T09:20:54.197Z,2.00
2018-02-17T09:23:22.479Z,2.20
2018-02-17T09:25:50.766Z,2.20
2018-02-17T09:28:18.297Z,2.20
2018-02-17T09:30:46.570Z,2.20
2018-02-17T09:33:14.112Z,2.10
2018-02-17T09:35:41.632Z,2.20
2018-02-17T09:38:09.167Z,2.30
2018-02-17T09:40:36.688Z,2.40
2018-02-17T09:43:04.206Z,2.30
2018-02-17T09:45:31.706Z,2.40
2018-02-17T09:47:59.270Z,2.40
2018-02-17T09:50:26.797Z,2.50
2018-02-17T09:52:54.318Z,2.40
2018-02-17T09:55:21.866Z,2.50
2018-02-17T09:57:50.134Z,2.60
2018-02-17T10:00:18.410Z,2.60
2018-02-17T10:02:45.954Z,2.60
2018-02-17T10:05:13.454Z,2.50
2018-02-17T10:07:40.992Z,2.60
2018-02-17T10:10:09.265Z,2.70
2018-02-17T10:12:37.544Z,2.60
2018-02-17T10:15:05.833Z,2.70
2018-02-17T10:17:33.335Z,2.70
2018-02-17T10:20:00.872Z,2.70
2018-02-17T10:22:28.392Z,2.60
2018-02-17T10:24:56.662Z,2.90
2018-02-17T10:27:24.955Z,2.70
2018-02-17T10:29:52.517Z,2.70
2018-02-17T10:32:20.021Z,2.70
2018-02-17T10:34:47.531Z,2.80
2018-02-17T10:37:15.817Z,2.70
2018-02-17T10:39:43.560Z,2.70
2018-02-17T10:42:11.844Z,3.00
2018-02-17T10:44:40.150Z,3.20
2018-02-17T10:47:07.689Z,3.20
2018-02-17T10:49:35.195Z,3.30
2018-02-17T10:52:02.730Z,3.40
2018-02-17T10:54:30.231Z,3.40
2018-02-17T10:56:57.764Z,3.60
2018-02-17T10:59:25.262Z,3.70
2018-02-17T11:01:53.538Z,3.90
2018-02-17T11:04:21.818Z,4.00
2018-02-17T11:06:50.109Z,4.10
2018-02-17T11:09:17.639Z,4.10
2018-02-17T11:11:45.141Z,4.10
2018-02-17T11:14:12.643Z,4.30
2018-02-17T11:16:40.181Z,4.40
2018-02-17T11:19:07.700Z,4.40
2018-02-17T11:21:35.978Z,4.40
2018-02-17T11:24:03.506Z,4.40
2018-02-17T11:26:31.048Z,4.50
2018-02-17T11:28:58.565Z,4.60
2018-02-17T11:31:26.069Z,4.60
2018-02-17T11:33:53.603Z,4.70
2018-02-17T11:36:21.105Z,4.70
2018-02-17T11:38:49.418Z,4.80
2018-02-17T11:41:16.940Z,4.70
2018-02-17T11:43:44.463Z,4.80
2018-02-17T11:46:12.001Z,4.90
2018-02-17T11:48:39.521Z,5.00
2018-02-17T11:51:07.833Z,5.00
2018-02-17T11:53:35.383Z,5.00
2018-02-17T11:56:02.914Z,5.10
2018-02-17T11:58:31.211Z,4.90
2018-02-17T12:00:58.733Z,4.90
2018-02-17T12:03:26.270Z,5.00
2018-02-17T12:05:53.814Z,5.00
2018-02-17T12:08:21.342Z,5.00
2018-02-17T12:10:48.854Z,5.10
2018-02-17T12:13:16.374Z,5.10
2018-02-17T12:15:43.916Z,5.10
2018-02-17T12:18:11.429Z,5.10
2018-02-17T12:20:38.950Z,5.10
2018-02-17T12:23:06.488Z,5.10
2018-02-17T12:25:34.777Z,5.20
2018-02-17T12:28:02.292Z,5.20
2018-02-17T12:30:29.849Z,5.20
2018-02-17T12:32:57.372Z,5.30
2018-02-17T12:35:24.889Z,5.30
2018-02-17T12:37:53.184Z,5.40
2018-02-17T12:40:20.718Z,5.40
2018-02-17T12:42:48.996Z,5.40
2018-02-17T12:45:17.282Z,5.50
2018-02-17T12:47:45.566Z,5.60
2018-02-17T12:50:13.078Z,5.60
2018-02-17T12:52:40.617Z,5.60
2018-02-17T12:55:08.127Z,5.60
2018-02-17T12:57:36.415Z,5.60
2018-02-17T13:00:03.934Z,5.60
2018-02-17T13:02:31.437Z,5.50
2018-02-17T13:04:58.968Z,5.40
2018-02-17T13:07:26.490Z,5.50
2018-02-17T13:09:54.011Z,5.50
2018-02-17T13:12:21.536Z,5.60
2018-02-17T13:14:49.070Z,5.50
2018-02-17T13:17:17.337Z,5.50
2018-02-17T13:19:44.866Z,5.50
2018-02-17T13:22:12.381Z,5.60
2018-02-17T13:24:39.920Z,5.50
2018-02-17T13:27:07.463Z,5.40
2018-02-17T13:29:34.981Z,5.40
2018-02-17T13:32:03.317Z,5.60
2018-02-17T13:34:30.820Z,5.60
2018-02-17T13:36:59.102Z,5.50
2018-02-17T13:39:26.644Z,5.50
2018-02-17T13:41:54.921Z,5.60
2018-02-17T13:44:23.217Z,5.60
2018-02-17T13:46:50.713Z,5.60
2018-02-17T13:49:18.257Z,5.80
2018-02-17T13:51:45.767Z,5.70
2018-02-17T13:54:13.270Z,5.90
2018-02-17T13:56:40.782Z,5.90
2018-02-17T13:59:08.279Z,6.00
2018-02-17T14:01:35.824Z,6.00
2018-02-17T14:04:03.331Z,6.10
2018-02-17T14:06:30.871Z,6.10
2018-02-17T14:08:58.374Z,6.10
2018-02-17T14:11:25.892Z,6.10
2018-02-17T14:13:53.424Z,5.90
2018-02-17T14:16:20.953Z,5.90
2018-02-17T14:18:49.238Z,6.00
2018-02-17T14:21:17.520Z,5.80
2018-02-17T14:23:45.822Z,5.90
2018-02-17T14:26:13.325Z,5.90
2018-02-17T14:28:40.826Z,5.70
2018-02-17T14:31:08.342Z,5.70
2018-02-17T14:33:35.852Z,5.70
2018-02-17T14:36:03.524Z,5.80
2018-02-17T14:38:31.047Z,5.70
2018-02-17T14:40:59.369Z,5.80
2018-02-17T14:43:26.882Z,5.80
2018-02-17T14:45:55.163Z,5.60
2018-02-17T14:48:23.449Z,5.40
2018-02-17T14:50:50.963Z,5.40
2018-02-17T14:53:18.500Z,5.50
2018-02-17T14:55:46.025Z,5.40
2018-02-17T14:58:13.565Z,5.40
2018-02-17T15:00:41.857Z,5.60
2018-02-17T15:03:09.384Z,5.60
2018-02-17T15:05:36.932Z,5.50
2018-02-17T15:08:04.442Z,5.40
2018-02-17T15:10:31.976Z,5.40
2018-02-17T15:13:00.263Z,5.40
2018-02-17T15:15:28.554Z,5.50
2018-02-17T15:17:56.126Z,5.50
2018-02-17T15:20:24.375Z,5.30
2018-02-17T15:22:52.671Z,5.20
2018-02-17T15:25:20.192Z,5.20
2018-02-17T15:27:47.719Z,5.20
2018-02-17T15:30:15.239Z,5.20
2018-02-17T15:32:42.784Z,5.20
2018-02-17T15:35:11.058Z,5.10
2018-02-17T15:37:38.573Z,5.10
2018-02-17T15:40:06.090Z,5.00
2018-02-17T15:42:33.605Z,5.10
2018-02-17T15:45:01.145Z,5.10
2018-02-17T15:47:28.665Z,4.90
2018-02-17T15:49:56.196Z,5.00
2018-02-17T15:52:24.481Z,5.00
2018-02-17T15:54:52.765Z,4.90
2018-02-17T15:57:20.300Z,4.90
2018-02-17T15:59:47.811Z,4.80
2018-02-17T16:02:15.335Z,4.80
2018-02-17T16:04:43.604Z,4.90
2018-02-17T16:07:11.898Z,4.80
2018-02-17T16:09:40.176Z,4.90
2018-02-17T16:12:07.687Z,4.90
2018-02-17T16:14:35.216Z,4.80
2018-02-17T16:17:02.755Z,4.80
2018-02-17T16:19:30.292Z,4.70
2018-02-17T16:21:58.584Z,4.70
2018-02-17T16:24:26.142Z,4.70
2018-02-17T16:26:53.666Z,4.50
2018-02-17T16:29:21.166Z,4.60
2018-02-17T16:31:48.686Z,4.60
2018-02-17T16:34:16.201Z,4.30
2018-02-17T16:36:43.718Z,4.20
2018-02-17T16:39:11.987Z,4.20
2018-02-17T16:41:39.511Z,4.20
2018-02-17T16:44:07.028Z,4.00
2018-02-17T16:46:35.325Z,4.10
2018-02-17T16:49:02.860Z,4.10
2018-02-17T16:51:31.134Z,3.80
2018-02-17T16:53:59.413Z,3.70
2018-02-17T16:56:27.697Z,3.60
2018-02-17T16:58:55.247Z,3.60
2018-02-17T17:01:23.533Z,3.40
2018-02-17T17:03:51.040Z,3.40
2018-02-17T17:06:18.576Z,3.50
2018-02-17T17:08:46.101Z,3.30
2018-02-17T17:11:13.639Z,3.20
2018-02-17T17:13:41.152Z,3.00
2018-02-17T17:16:08.666Z,2.80
2018-02-17T17:18:36.950Z,2.60
2018-02-17T17:21:05.225Z,2.60
2018-02-17T17:23:33.551Z,2.40
2018-02-17T17:26:01.053Z,2.40
2018-02-17T17:28:29.352Z,2.20
2018-02-17T17:30:56.859Z,2.20
2018-02-17T17:33:24.360Z,2.20
2018-02-17T17:35:51.880Z,2.30
2018-02-17T17:38:19.382Z,2.20
2018-02-17T17:40:46.902Z,2.00
2018-02-17T17:43:14.406Z,1.90
2018-02-17T17:45:41.953Z,1.90
2018-02-17T17:48:09.464Z,2.10
2018-02-17T17:50:36.966Z,2.00
2018-02-17T17:53:04.496Z,1.70
2018-02-17T17:55:32.016Z,1.70
2018-02-17T17:57:59.526Z,1.70
2018-02-17T18:00:27.788Z,1.60
2018-02-17T18:02:55.327Z,1.50
2018-02-17T18:05:22.849Z,1.60
2018-02-17T18:07:50.345Z,1.60
2018-02-17T19:32:15.029Z,1.50
2018-02-17T19:34:42.522Z,0.40
2018-02-17T19:37:10.049Z,0.40
2018-02-17T19:39:37.550Z,0.00
2018-02-17T19:42:05.053Z,0.00
2018-02-17T19:44:33.361Z,-0.10
2018-02-17T19:47:00.858Z,-0.10
2018-02-17T19:49:28.411Z,-0.10
2018-02-17T19:51:55.924Z,0.00
2018-02-17T19:54:23.496Z,0.20
2018-02-17T19:56:51.029Z,0.10
2018-02-17T19:59:19.304Z,-0.40
2018-02-17T20:01:47.602Z,-0.40
2018-02-17T20:04:15.122Z,-0.50
2018-02-17T20:06:42.643Z,-0.50
2018-02-17T20:09:10.163Z,-0.40
2018-02-17T20:11:37.688Z,-0.60
2018-02-17T20:14:05.228Z,-0.60
2018-02-17T20:16:32.737Z,-0.50
2018-02-17T20:19:00.244Z,-0.30
2018-02-17T20:21:27.757Z,0.00
2018-02-17T20:23:55.249Z,0.00
2018-02-17T20:26:22.796Z,0.10
2018-02-17T20:28:50.299Z,0.00
2018-02-17T20:31:17.821Z,-0.10
2018-02-17T20:33:45.355Z,-0.10
2018-02-17T20:36:12.861Z,0.10
2018-02-17T20:38:40.405Z,-0.10
2018-02-17T20:41:07.919Z,-0.10
2018-02-17T20:43:35.434Z,0.10
2018-02-17T20:46:02.964Z,0.10
2018-02-17T20:48:30.470Z,-0.20
2018-02-17T20:50:58.050Z,-0.20
2018-02-17T20:53:25.537Z,-0.10
2018-02-17T20:55:53.034Z,-0.20
2018-02-17T20:58:21.334Z,-0.50
2018-02-17T21:00:49.619Z,-0.40
2018-02-17T21:03:17.162Z,-0.40
2018-02-17T21:05:45.469Z,-0.20
2018-02-17T21:08:12.993Z,-0.30
2018-02-17T21:10:41.283Z,-0.10
2018-02-17T21:13:09.564Z,0.00
2018-02-17T21:15:37.115Z,0.00
2018-02-17T21:18:05.385Z,-0.60
2018-02-17T21:20:33.678Z,-0.80
2018-02-17T21:23:01.993Z,-0.70
2018-02-17T21:25:29.512Z,-0.70
2018-02-17T21:27:57.801Z,-0.50
2018-02-17T21:30:25.321Z,-0.50
2018-02-17T21:32:52.830Z,-0.60
2018-02-17T21:35:20.378Z,-0.40
2018-02-17T21:37:47.889Z,-0.50
2018-02-17T21:40:15.441Z,-0.40
2018-02-17T21:42:42.962Z,-0.40
2018-02-17T21:45:10.474Z,-0.40
2018-02-17T21:47:37.990Z,-0.40
2018-02-17T21:50:05.552Z,-0.40
2018-02-17T21:52:33.113Z,-0.40
2018-02-17T21:55:00.624Z,-0.40
2018-02-17T21:57:28.890Z,-0.80
2018-02-17T21:59:56.420Z,-0.80
2018-02-17T22:02:24.053Z,-1.10
2018-02-17T22:04:51.624Z,-1.20
2018-02-17T22:07:19.131Z,-1.10
2018-02-17T22:09:47.414Z,-1.40
2018-02-17T22:12:15.712Z,-1.30
2018-02-17T22:14:43.223Z,-1.30
2018-02-17T22:17:10.776Z,-1.00
2018-02-17T22:19:38.299Z,-0.90
2018-02-17T22:22:05.823Z,-1.10
2018-02-17T22:24:34.123Z,-1.50
2018-02-17T22:27:01.627Z,-1.60
2018-02-17T22:29:29.176Z,-1.30
2018-02-17T22:31:56.693Z,-1.10
2018-02-17T22:34:24.204Z,-1.40
2018-02-17T22:36:51.748Z,-1.30
2018-02-17T22:39:19.261Z,-1.40
2018-02-17T22:41:47.554Z,-1.40
2018-02-17T22:44:15.062Z,-1.40
2018-02-17T22:46:42.584Z,-1.30
2018-02-17T22:49:10.111Z,-1.20
2018-02-17T22:51:38.383Z,-1.70
2018-02-17T22:54:05.919Z,-1.70
2018-02-17T22:56:33.432Z,-1.60
2018-02-17T22:59:00.944Z,-1.40
2018-02-17T23:01:29.235Z,-1.40
2018-02-17T23:03:57.512Z,-1.40
2018-02-17T23:06:25.824Z,-1.30
2018-02-17T23:08:53.345Z,-1.40
2018-02-17T23:11:21.631Z,-1.80
2018-02-17T23:13:49.163Z,-1.80
2018-02-17T23:16:16.685Z,-1.50
2018-02-17T23:18:44.220Z,-1.60
2018-02-17T23:21:11.739Z,-1.60
2018-02-17T23:23:39.312Z,-1.50
2018-02-17T23:26:07.612Z,-1.60
2018-02-17T23:28:35.136Z,-1.60
2018-02-17T23:31:02.705Z,-1.60
2018-02-17T23:33:30.981Z,-1.20
2018-02-17T23:35:59.246Z,-1.30
2018-02-17T23:38:26.785Z,-1.30
2018-02-17T23:40:54.300Z,-1.30
2018-02-17T23:43:21.821Z,-1.20
2018-02-17T23:45:49.317Z,-1.20
2018-02-17T23:48:16.821Z,-1.20
2018-02-17T23:50:44.359Z,-1.10
2018-02-17T23:53:11.893Z,-1.10
2018-02-17T23:55:39.453Z,-1.50
2018-02-17T23:58:06.981Z,-1.50
